sensor_id;sensor_type;location;lat;lon;timestamp;pressure;altitude;pressure_sealevel;temperature;humidity
13612;BME280;6877;51.436;6.774;2023-05-25T00:01:04;101987.13;;;9.33;95.46
13612;BME280;6877;51.436;6.774;2023-05-25T00:03:31;101982.75;;;9.27;95.66
13612;BME280;6877;51.436;6.774;2023-05-25T00:06:02;101986.16;;;9.20;95.76
13612;BME280;6877;51.436;6.774;2023-05-25T00:08:34;101984.41;;;9.16;96.33
13612;BME280;6877;51.436;6.774;2023-05-25T00:11:00;101984.41;;;9.14;96.83
13612;BME280;6877;51.436;6.774;2023-05-25T00:13:27;101985.28;;;9.15;97.24
13612;BME280;6877;51.436;6.774;2023-05-25T00:15:53;101978.28;;;9.12;97.27
13612;BME280;6877;51.436;6.774;2023-05-25T00:18:24;101970.38;;;9.04;96.67
13612;BME280;6877;51.436;6.774;2023-05-25T00:20:57;101967.81;;;9.09;97.78
13612;BME280;6877;51.436;6.774;2023-05-25T00:23:23;101972.19;;;9.12;97.75
13612;BME280;6877;51.436;6.774;2023-05-25T00:25:55;101966.09;;;9.13;98.06
13612;BME280;6877;51.436;6.774;2023-05-25T00:28:21;101967.75;;;9.04;97.58
13612;BME280;6877;51.436;6.774;2023-05-25T00:30:53;101966.00;;;8.99;97.93
13612;BME280;6877;51.436;6.774;2023-05-25T00:33:20;101971.19;;;8.97;98.57
13612;BME280;6877;51.436;6.774;2023-05-25T00:35:51;101964.25;;;8.99;99.01
13612;BME280;6877;51.436;6.774;2023-05-25T00:38:24;101970.31;;;8.98;99.01
13612;BME280;6877;51.436;6.774;2023-05-25T00:40:54;101963.34;;;8.94;99.01
13612;BME280;6877;51.436;6.774;2023-05-25T00:43:21;101969.47;;;8.96;99.23
13612;BME280;6877;51.436;6.774;2023-05-25T00:45:49;101982.53;;;8.96;99.24
13612;BME280;6877;51.436;6.774;2023-05-25T00:48:17;101982.50;;;8.93;99.02
13612;BME280;6877;51.436;6.774;2023-05-25T00:50:44;101978.94;;;8.85;98.67
13612;BME280;6877;51.436;6.774;2023-05-25T00:53:12;101979.78;;;8.81;99.74
13612;BME280;6877;51.436;6.774;2023-05-25T00:55:58;101978.84;;;8.76;100.00
13612;BME280;6877;51.436;6.774;2023-05-25T00:58:30;101986.66;;;8.71;100.00
13612;BME280;6877;51.436;6.774;2023-05-25T01:00:59;101982.31;;;8.72;100.00
13612;BME280;6877;51.436;6.774;2023-05-25T01:03:29;101975.31;;;8.68;100.00
13612;BME280;6877;51.436;6.774;2023-05-25T01:05:56;101976.09;;;8.57;100.00
13612;BME280;6877;51.436;6.774;2023-05-25T01:08:24;101978.69;;;8.56;100.00
13612;BME280;6877;51.436;6.774;2023-05-25T01:10:57;101984.75;;;8.53;100.00
13612;BME280;6877;51.436;6.774;2023-05-25T01:13:26;101984.75;;;8.52;100.00
13612;BME280;6877;51.436;6.774;2023-05-25T01:15:54;101985.53;;;8.45;100.00
13612;BME280;6877;51.436;6.774;2023-05-25T01:18:21;101986.28;;;8.36;100.00
13612;BME280;6877;51.436;6.774;2023-05-25T01:21:13;101991.38;;;8.24;100.00
13612;BME280;6877;51.436;6.774;2023-05-25T01:26:33;101987.56;;;7.97;100.00
13612;BME280;6877;51.436;6.774;2023-05-25T01:29:00;101990.06;;;7.88;100.00
13612;BME280;6877;51.436;6.774;2023-05-25T01:31:34;101983.06;;;7.84;100.00
13612;BME280;6877;51.436;6.774;2023-05-25T01:34:06;101989.94;;;7.76;100.00
13612;BME280;6877;51.436;6.774;2023-05-25T01:36:33;101989.81;;;7.66;100.00
13612;BME280;6877;51.436;6.774;2023-05-25T01:39:05;101994.06;;;7.61;100.00
13612;BME280;6877;51.436;6.774;2023-05-25T01:41:32;102000.16;;;7.60;100.00
13612;BME280;6877;51.436;6.774;2023-05-25T01:43:58;102001.13;;;7.69;100.00
13612;BME280;6877;51.436;6.774;2023-05-25T01:46:35;101996.84;;;7.74;100.00
13612;BME280;6877;51.436;6.774;2023-05-25T01:49:20;101995.19;;;7.79;100.00
13612;BME280;6877;51.436;6.774;2023-05-25T01:54:37;102002.16;;;7.80;100.00
13612;BME280;6877;51.436;6.774;2023-05-25T01:57:11;102008.19;;;7.76;100.00
13612;BME280;6877;51.436;6.774;2023-05-25T01:59:41;102014.19;;;7.72;100.00
13612;BME280;6877;51.436;6.774;2023-05-25T02:02:09;102008.06;;;7.66;100.00
13612;BME280;6877;51.436;6.774;2023-05-25T02:04:37;102006.19;;;7.59;100.00
13612;BME280;6877;51.436;6.774;2023-05-25T02:07:09;102001.03;;;7.61;100.00
13612;BME280;6877;51.436;6.774;2023-05-25T02:09:41;102010.66;;;7.66;100.00
13612;BME280;6877;51.436;6.774;2023-05-25T02:12:12;102005.44;;;7.66;100.00
13612;BME280;6877;51.436;6.774;2023-05-25T02:14:39;102011.53;;;7.69;100.00
13612;BME280;6877;51.436;6.774;2023-05-25T02:17:05;102013.31;;;7.71;100.00
13612;BME280;6877;51.436;6.774;2023-05-25T02:19:33;102009.94;;;7.78;100.00
13612;BME280;6877;51.436;6.774;2023-05-25T02:22:05;102008.28;;;7.83;100.00
13612;BME280;6877;51.436;6.774;2023-05-25T02:24:31;102008.31;;;7.88;100.00
13612;BME280;6877;51.436;6.774;2023-05-25T02:27:03;102005.75;;;7.89;100.00
13612;BME280;6877;51.436;6.774;2023-05-25T02:29:34;102007.53;;;7.92;100.00
13612;BME280;6877;51.436;6.774;2023-05-25T02:32:01;102008.31;;;7.88;100.00
13612;BME280;6877;51.436;6.774;2023-05-25T02:34:32;102013.44;;;7.79;100.00
13612;BME280;6877;51.436;6.774;2023-05-25T02:37:04;102013.34;;;7.74;100.00
13612;BME280;6877;51.436;6.774;2023-05-25T02:39:30;102009.00;;;7.73;100.00
13612;BME280;6877;51.436;6.774;2023-05-25T02:41:56;102016.00;;;7.76;100.00
13612;BME280;6877;51.436;6.774;2023-05-25T02:44:23;102014.22;;;7.75;100.00
13612;BME280;6877;51.436;6.774;2023-05-25T02:46:54;102010.75;;;7.73;100.00
13612;BME280;6877;51.436;6.774;2023-05-25T02:49:26;101999.41;;;7.72;100.00
13612;BME280;6877;51.436;6.774;2023-05-25T02:51:52;102006.31;;;7.69;100.00
13612;BME280;6877;51.436;6.774;2023-05-25T02:54:19;102003.66;;;7.64;100.00
13612;BME280;6877;51.436;6.774;2023-05-25T02:56:50;102008.78;;;7.58;100.00
13612;BME280;6877;51.436;6.774;2023-05-25T02:59:21;102003.47;;;7.50;100.00
13612;BME280;6877;51.436;6.774;2023-05-25T03:01:55;102009.50;;;7.46;100.00
13612;BME280;6877;51.436;6.774;2023-05-25T03:04:26;102009.44;;;7.41;100.00
13612;BME280;6877;51.436;6.774;2023-05-25T03:06:52;102011.09;;;7.35;100.00
13612;BME280;6877;51.436;6.774;2023-05-25T03:09:19;102009.34;;;7.37;100.00
13612;BME280;6877;51.436;6.774;2023-05-25T03:11:46;102010.31;;;7.42;100.00
13612;BME280;6877;51.436;6.774;2023-05-25T03:14:12;102012.97;;;7.45;100.00
13612;BME280;6877;51.436;6.774;2023-05-25T03:16:43;102011.19;;;7.42;100.00
13612;BME280;6877;51.436;6.774;2023-05-25T03:19:10;102023.19;;;7.34;100.00
13612;BME280;6877;51.436;6.774;2023-05-25T03:21:37;102025.66;;;7.24;100.00
13612;BME280;6877;51.436;6.774;2023-05-25T03:24:04;102025.50;;;7.13;100.00
13612;BME280;6877;51.436;6.774;2023-05-25T03:26:31;102022.84;;;7.11;100.00
13612;BME280;6877;51.436;6.774;2023-05-25T03:29:03;102026.47;;;7.21;100.00
13612;BME280;6877;51.436;6.774;2023-05-25T03:31:36;102036.22;;;7.33;100.00
13612;BME280;6877;51.436;6.774;2023-05-25T03:34:08;102041.47;;;7.36;100.00
13612;BME280;6877;51.436;6.774;2023-05-25T03:36:39;102039.69;;;7.32;100.00
13612;BME280;6877;51.436;6.774;2023-05-25T03:39:10;102043.13;;;7.31;100.00
13612;BME280;6877;51.436;6.774;2023-05-25T03:41:37;102041.22;;;7.20;100.00
13612;BME280;6877;51.436;6.774;2023-05-25T03:44:04;102045.47;;;7.14;100.00
13612;BME280;6877;51.436;6.774;2023-05-25T03:46:30;102047.34;;;7.23;100.00
13612;BME280;6877;51.436;6.774;2023-05-25T03:48:57;102056.13;;;7.31;100.00
13612;BME280;6877;51.436;6.774;2023-05-25T03:51:28;102051.06;;;7.38;100.00
13612;BME280;6877;51.436;6.774;2023-05-25T03:53:54;102065.00;;;7.42;100.00
13612;BME280;6877;51.436;6.774;2023-05-25T03:56:26;102049.28;;;7.37;100.00
13612;BME280;6877;51.436;6.774;2023-05-25T03:58:57;102058.88;;;7.40;100.00
13612;BME280;6877;51.436;6.774;2023-05-25T04:01:25;102064.28;;;7.52;100.00
13612;BME280;6877;51.436;6.774;2023-05-25T04:03:52;102067.06;;;7.63;100.00
13612;BME280;6877;51.436;6.774;2023-05-25T04:06:18;102069.81;;;7.74;100.00
13612;BME280;6877;51.436;6.774;2023-05-25T04:08:51;102066.44;;;7.81;100.00
13612;BME280;6877;51.436;6.774;2023-05-25T04:11:23;102070.88;;;7.88;100.00
13612;BME280;6877;51.436;6.774;2023-05-25T04:13:50;102068.34;;;7.93;100.00
13612;BME280;6877;51.436;6.774;2023-05-25T04:16:17;102077.09;;;7.98;100.00
13612;BME280;6877;51.436;6.774;2023-05-25T04:18:43;102072.94;;;8.12;100.00
13612;BME280;6877;51.436;6.774;2023-05-25T04:21:10;102075.78;;;8.32;100.00
13612;BME280;6877;51.436;6.774;2023-05-25T04:23:36;102071.69;;;8.49;100.00
13612;BME280;6877;51.436;6.774;2023-05-25T04:26:07;102077.88;;;8.61;100.00
13612;BME280;6877;51.436;6.774;2023-05-25T04:28:35;102074.50;;;8.69;100.00
13612;BME280;6877;51.436;6.774;2023-05-25T04:31:11;102077.22;;;8.80;100.00
13612;BME280;6877;51.436;6.774;2023-05-25T04:33:38;102073.06;;;9.00;100.00
13612;BME280;6877;51.436;6.774;2023-05-25T04:36:06;102076.75;;;9.24;100.00
13612;BME280;6877;51.436;6.774;2023-05-25T04:38:39;102082.75;;;9.14;100.00
13612;BME280;6877;51.436;6.774;2023-05-25T04:41:07;102084.44;;;9.05;100.00
13612;BME280;6877;51.436;6.774;2023-05-25T04:43:38;102081.75;;;8.99;100.00
13612;BME280;6877;51.436;6.774;2023-05-25T04:46:05;102083.47;;;8.97;100.00
13612;BME280;6877;51.436;6.774;2023-05-25T04:48:38;102082.63;;;9.00;100.00
13612;BME280;6877;51.436;6.774;2023-05-25T04:51:05;102088.75;;;9.03;100.00
13612;BME280;6877;51.436;6.774;2023-05-25T04:53:32;102090.63;;;9.18;100.00
13612;BME280;6877;51.436;6.774;2023-05-25T04:56:00;102087.44;;;9.53;100.00
13612;BME280;6877;51.436;6.774;2023-05-25T04:58:27;102094.78;;;10.23;98.46
13612;BME280;6877;51.436;6.774;2023-05-25T05:00:56;102098.50;;;10.86;95.19
13612;BME280;6877;51.436;6.774;2023-05-25T05:03:23;102114.28;;;11.17;90.40
13612;BME280;6877;51.436;6.774;2023-05-25T05:05:49;102123.88;;;11.01;89.52
13612;BME280;6877;51.436;6.774;2023-05-25T05:08:16;102128.13;;;10.65;90.08
13612;BME280;6877;51.436;6.774;2023-05-25T05:10:42;102122.78;;;10.33;91.50
13612;BME280;6877;51.436;6.774;2023-05-25T05:13:09;102127.88;;;10.12;92.94
13612;BME280;6877;51.436;6.774;2023-05-25T05:15:36;102122.59;;;10.00;93.77
13612;BME280;6877;51.436;6.774;2023-05-25T05:18:08;102122.53;;;9.87;94.33
13612;BME280;6877;51.436;6.774;2023-05-25T05:20:34;102125.03;;;9.75;94.91
13612;BME280;6877;51.436;6.774;2023-05-25T05:23:06;102119.78;;;9.73;95.68
13612;BME280;6877;51.436;6.774;2023-05-25T05:25:33;102126.06;;;10.02;95.45
13612;BME280;6877;51.436;6.774;2023-05-25T05:27:59;102133.22;;;10.30;93.42
13612;BME280;6877;51.436;6.774;2023-05-25T05:30:26;102133.31;;;10.49;92.42
13612;BME280;6877;51.436;6.774;2023-05-25T05:32:52;102136.88;;;10.63;91.06
13612;BME280;6877;51.436;6.774;2023-05-25T05:35:23;102142.13;;;10.72;91.41
13612;BME280;6877;51.436;6.774;2023-05-25T05:37:50;102148.34;;;11.14;90.53
13612;BME280;6877;51.436;6.774;2023-05-25T05:40:16;102158.84;;;11.43;88.13
13612;BME280;6877;51.436;6.774;2023-05-25T05:42:43;102158.84;;;11.23;87.15
13612;BME280;6877;51.436;6.774;2023-05-25T05:45:10;102157.91;;;10.97;88.74
13612;BME280;6877;51.436;6.774;2023-05-25T05:47:36;102156.16;;;10.99;89.32
13612;BME280;6877;51.436;6.774;2023-05-25T05:50:03;102161.47;;;11.35;87.53
13612;BME280;6877;51.436;6.774;2023-05-25T05:52:29;102162.34;;;11.36;86.38
13612;BME280;6877;51.436;6.774;2023-05-25T05:55:01;102164.06;;;11.20;87.37
13612;BME280;6877;51.436;6.774;2023-05-25T05:57:27;102158.78;;;11.12;88.27
13612;BME280;6877;51.436;6.774;2023-05-25T05:59:54;102169.28;;;11.16;88.09
13612;BME280;6877;51.436;6.774;2023-05-25T06:02:25;102168.44;;;11.21;87.11
13612;BME280;6877;51.436;6.774;2023-05-25T06:04:57;102173.69;;;11.27;87.54
13612;BME280;6877;51.436;6.774;2023-05-25T06:07:28;102164.09;;;11.40;87.30
13612;BME280;6877;51.436;6.774;2023-05-25T06:09:55;102162.34;;;11.56;86.28
13612;BME280;6877;51.436;6.774;2023-05-25T06:12:27;102164.97;;;11.59;85.81
13612;BME280;6877;51.436;6.774;2023-05-25T06:14:59;102158.84;;;11.62;85.81
13612;BME280;6877;51.436;6.774;2023-05-25T06:17:27;102159.72;;;11.71;85.67
13612;BME280;6877;51.436;6.774;2023-05-25T06:19:55;102159.72;;;11.71;84.90
13612;BME280;6877;51.436;6.774;2023-05-25T06:22:23;102172.84;;;11.73;85.37
13612;BME280;6877;51.436;6.774;2023-05-25T06:24:58;102164.09;;;11.80;84.95
13612;BME280;6877;51.436;6.774;2023-05-25T06:27:30;102169.31;;;11.81;84.93
13612;BME280;6877;51.436;6.774;2023-05-25T06:29:56;102171.94;;;12.00;84.46
13612;BME280;6877;51.436;6.774;2023-05-25T06:32:22;102172.78;;;12.20;83.29
13612;BME280;6877;51.436;6.774;2023-05-25T06:34:49;102172.72;;;12.36;82.43
13612;BME280;6877;51.436;6.774;2023-05-25T06:37:20;102180.53;;;12.60;81.47
13612;BME280;6877;51.436;6.774;2023-05-25T06:39:47;102192.63;;;12.95;79.73
13612;BME280;6877;51.436;6.774;2023-05-25T06:42:19;102185.28;;;13.49;78.14
13612;BME280;6877;51.436;6.774;2023-05-25T06:44:45;102189.16;;;14.05;74.91
13612;BME280;6877;51.436;6.774;2023-05-25T06:47:12;102188.06;;;14.28;73.49
13612;BME280;6877;51.436;6.774;2023-05-25T06:49:38;102190.81;;;14.19;73.12
13612;BME280;6877;51.436;6.774;2023-05-25T06:52:09;102184.53;;;14.30;72.54
13612;BME280;6877;51.436;6.774;2023-05-25T06:54:41;102191.56;;;14.30;71.98
13612;BME280;6877;51.436;6.774;2023-05-25T06:57:12;102196.81;;;14.30;71.70
13612;BME280;6877;51.436;6.774;2023-05-25T06:59:42;102192.25;;;14.47;71.14
13612;BME280;6877;51.436;6.774;2023-05-25T07:02:08;102204.59;;;15.12;70.09
13612;BME280;6877;51.436;6.774;2023-05-25T07:04:34;102200.41;;;16.10;66.76
13612;BME280;6877;51.436;6.774;2023-05-25T07:07:06;102202.84;;;16.65;62.96
13612;BME280;6877;51.436;6.774;2023-05-25T07:09:33;102202.72;;;16.70;62.23
13612;BME280;6877;51.436;6.774;2023-05-25T07:11:59;102207.81;;;16.37;61.52
13612;BME280;6877;51.436;6.774;2023-05-25T07:14:26;102215.94;;;15.77;63.78
13612;BME280;6877;51.436;6.774;2023-05-25T07:16:57;102222.09;;;15.76;64.42
13612;BME280;6877;51.436;6.774;2023-05-25T07:19:29;102213.16;;;15.86;64.28
13612;BME280;6877;51.436;6.774;2023-05-25T07:22:00;102206.31;;;16.22;62.86
13612;BME280;6877;51.436;6.774;2023-05-25T07:24:27;102211.25;;;16.41;61.25
13612;BME280;6877;51.436;6.774;2023-05-25T07:26:53;102211.38;;;16.36;62.00
13612;BME280;6877;51.436;6.774;2023-05-25T07:29:20;102211.38;;;16.36;60.73
13612;BME280;6877;51.436;6.774;2023-05-25T07:31:51;102211.75;;;16.15;61.21
13612;BME280;6877;51.436;6.774;2023-05-25T07:34:18;102224.38;;;15.97;61.78
13612;BME280;6877;51.436;6.774;2023-05-25T07:36:46;102221.88;;;15.90;61.55
13612;BME280;6877;51.436;6.774;2023-05-25T07:39:12;102218.59;;;15.77;61.67
13612;BME280;6877;51.436;6.774;2023-05-25T07:41:44;102232.88;;;15.62;62.12
13612;BME280;6877;51.436;6.774;2023-05-25T07:44:10;102221.34;;;16.20;60.86
13612;BME280;6877;51.436;6.774;2023-05-25T07:46:37;102220.66;;;16.56;59.85
13612;BME280;6877;51.436;6.774;2023-05-25T07:49:08;102223.47;;;17.30;58.76
13612;BME280;6877;51.436;6.774;2023-05-25T07:51:46;102233.13;;;17.70;55.25
13612;BME280;6877;51.436;6.774;2023-05-25T07:54:17;102231.41;;;16.91;56.71
13612;BME280;6877;51.436;6.774;2023-05-25T07:56:44;102227.72;;;16.55;58.53
13612;BME280;6877;51.436;6.774;2023-05-25T07:59:10;102224.25;;;16.52;59.24
13612;BME280;6877;51.436;6.774;2023-05-25T08:01:37;102225.69;;;17.49;57.35
13612;BME280;6877;51.436;6.774;2023-05-25T08:04:04;102239.50;;;17.99;55.38
13612;BME280;6877;51.436;6.774;2023-05-25T08:06:31;102230.44;;;18.71;52.98
13612;BME280;6877;51.436;6.774;2023-05-25T08:08:59;102244.78;;;19.81;49.34
13612;BME280;6877;51.436;6.774;2023-05-25T08:11:26;102250.03;;;19.55;49.09
13612;BME280;6877;51.436;6.774;2023-05-25T08:13:52;102244.97;;;19.47;49.14
13612;BME280;6877;51.436;6.774;2023-05-25T08:16:19;102244.72;;;20.59;47.45
13612;BME280;6877;51.436;6.774;2023-05-25T08:18:45;102250.75;;;21.78;40.89
13612;BME280;6877;51.436;6.774;2023-05-25T08:21:12;102257.75;;;23.20;39.13
13612;BME280;6877;51.436;6.774;2023-05-25T08:23:39;102257.75;;;23.20;38.47
13612;BME280;6877;51.436;6.774;2023-05-25T08:26:08;102249.22;;;22.74;39.10
13612;BME280;6877;51.436;6.774;2023-05-25T08:28:34;102250.78;;;23.73;37.05
13612;BME280;6877;51.436;6.774;2023-05-25T08:31:01;102251.19;;;24.35;36.29
13612;BME280;6877;51.436;6.774;2023-05-25T08:33:32;102256.00;;;26.63;33.03
13612;BME280;6877;51.436;6.774;2023-05-25T08:35:59;102262.88;;;26.95;31.39
13612;BME280;6877;51.436;6.774;2023-05-25T08:38:25;102272.06;;;27.88;30.75
13612;BME280;6877;51.436;6.774;2023-05-25T08:41:03;102269.53;;;27.18;30.51
13612;BME280;6877;51.436;6.774;2023-05-25T08:43:31;102266.25;;;24.86;34.19
13612;BME280;6877;51.436;6.774;2023-05-25T08:46:03;102277.47;;;22.59;38.09
13612;BME280;6877;51.436;6.774;2023-05-25T08:48:34;102268.31;;;20.92;41.12
13612;BME280;6877;51.436;6.774;2023-05-25T08:51:08;102277.09;;;19.94;43.18
13612;BME280;6877;51.436;6.774;2023-05-25T08:53:36;102265.38;;;19.45;44.82
13612;BME280;6877;51.436;6.774;2023-05-25T08:56:08;102260.16;;;18.84;46.80
13612;BME280;6877;51.436;6.774;2023-05-25T08:59:08;102264.09;;;19.58;46.07
13612;BME280;6877;51.436;6.774;2023-05-25T09:01:38;102267.00;;;22.55;39.14
13612;BME280;6877;51.436;6.774;2023-05-25T09:04:08;102272.88;;;23.02;37.47
13612;BME280;6877;51.436;6.774;2023-05-25T09:06:39;102259.69;;;22.39;38.74
13612;BME280;6877;51.436;6.774;2023-05-25T09:09:11;102260.69;;;21.74;40.16
13612;BME280;6877;51.436;6.774;2023-05-25T09:11:43;102260.31;;;21.39;41.45
13612;BME280;6877;51.436;6.774;2023-05-25T09:14:10;102256.72;;;21.17;41.55
13612;BME280;6877;51.436;6.774;2023-05-25T09:16:37;102260.53;;;19.86;44.03
13612;BME280;6877;51.436;6.774;2023-05-25T09:19:03;102263.06;;;19.90;45.18
13612;BME280;6877;51.436;6.774;2023-05-25T09:21:30;102271.94;;;21.81;41.27
13612;BME280;6877;51.436;6.774;2023-05-25T09:23:58;102277.53;;;24.42;36.58
13612;BME280;6877;51.436;6.774;2023-05-25T09:26:30;102283.41;;;27.11;32.23
13612;BME280;6877;51.436;6.774;2023-05-25T09:28:56;102283.44;;;28.96;28.07
13612;BME280;6877;51.436;6.774;2023-05-25T09:31:23;102288.03;;;27.09;30.35
13612;BME280;6877;51.436;6.774;2023-05-25T09:33:55;102290.84;;;25.74;32.44
13612;BME280;6877;51.436;6.774;2023-05-25T09:36:25;102295.22;;;26.51;31.92
13612;BME280;6877;51.436;6.774;2023-05-25T09:38:52;102287.91;;;25.62;31.96
13612;BME280;6877;51.436;6.774;2023-05-25T09:41:19;102281.81;;;25.29;32.62
13612;BME280;6877;51.436;6.774;2023-05-25T09:43:47;102300.38;;;25.63;32.81
13612;BME280;6877;51.436;6.774;2023-05-25T09:46:13;102296.78;;;26.25;31.41
13612;BME280;6877;51.436;6.774;2023-05-25T09:48:45;102295.78;;;24.69;33.12
13612;BME280;6877;51.436;6.774;2023-05-25T09:51:13;102283.25;;;22.69;36.92
13612;BME280;6877;51.436;6.774;2023-05-25T09:53:41;102290.88;;;23.54;36.51
13612;BME280;6877;51.436;6.774;2023-05-25T09:56:10;102298.34;;;23.28;36.37
13612;BME280;6877;51.436;6.774;2023-05-25T09:58:36;102288.50;;;21.21;40.59
13612;BME280;6877;51.436;6.774;2023-05-25T10:01:03;102290.97;;;20.29;43.19
13612;BME280;6877;51.436;6.774;2023-05-25T10:03:30;102303.63;;;20.47;43.04
13612;BME280;6877;51.436;6.774;2023-05-25T10:05:56;102296.09;;;22.40;38.94
13612;BME280;6877;51.436;6.774;2023-05-25T10:08:23;102295.88;;;21.82;38.59
13612;BME280;6877;51.436;6.774;2023-05-25T10:10:50;102293.00;;;21.43;39.64
13612;BME280;6877;51.436;6.774;2023-05-25T10:13:21;102298.50;;;20.68;41.46
13612;BME280;6877;51.436;6.774;2023-05-25T10:15:52;102301.91;;;19.66;43.88
13612;BME280;6877;51.436;6.774;2023-05-25T10:18:27;102297.97;;;18.91;46.38
13612;BME280;6877;51.436;6.774;2023-05-25T10:21:02;102299.78;;;18.56;47.53
13612;BME280;6877;51.436;6.774;2023-05-25T10:23:34;102302.47;;;17.88;49.61
13612;BME280;6877;51.436;6.774;2023-05-25T10:26:04;102298.22;;;17.80;50.62
13612;BME280;6877;51.436;6.774;2023-05-25T10:28:35;102298.28;;;17.77;50.88
13612;BME280;6877;51.436;6.774;2023-05-25T10:31:08;102287.13;;;17.63;51.29
13612;BME280;6877;51.436;6.774;2023-05-25T10:33:39;102294.63;;;17.43;52.29
13612;BME280;6877;51.436;6.774;2023-05-25T10:36:07;102293.75;;;17.44;52.14
13612;BME280;6877;51.436;6.774;2023-05-25T10:38:40;102306.16;;;17.40;52.58
13612;BME280;6877;51.436;6.774;2023-05-25T10:41:08;102296.75;;;17.27;52.97
13612;BME280;6877;51.436;6.774;2023-05-25T10:43:37;102310.59;;;17.40;52.87
13612;BME280;6877;51.436;6.774;2023-05-25T10:46:08;102299.59;;;17.19;53.59
13612;BME280;6877;51.436;6.774;2023-05-25T10:48:38;102306.44;;;16.86;54.45
13612;BME280;6877;51.436;6.774;2023-05-25T10:51:05;102313.91;;;16.62;55.37
13612;BME280;6877;51.436;6.774;2023-05-25T10:53:32;102311.81;;;16.33;56.16
13612;BME280;6877;51.436;6.774;2023-05-25T10:56:05;102302.00;;;16.40;55.79
13612;BME280;6877;51.436;6.774;2023-05-25T10:58:32;102294.31;;;16.73;55.25
13612;BME280;6877;51.436;6.774;2023-05-25T11:01:06;102295.16;;;17.60;52.57
13612;BME280;6877;51.436;6.774;2023-05-25T11:06:10;102302.81;;;21.86;41.80
13612;BME280;6877;51.436;6.774;2023-05-25T11:08:54;102285.28;;;21.13;41.83
13612;BME280;6877;51.436;6.774;2023-05-25T11:17:10;102281.72;;;18.39;49.47
13612;BME280;6877;51.436;6.774;2023-05-25T11:19:47;102283.53;;;18.03;50.50
13612;BME280;6877;51.436;6.774;2023-05-25T11:22:37;102286.06;;;17.70;51.94
13612;BME280;6877;51.436;6.774;2023-05-25T11:25:37;102283.06;;;17.48;53.09
13612;BME280;6877;51.436;6.774;2023-05-25T11:28:05;102275.47;;;17.33;53.21
13612;BME280;6877;51.436;6.774;2023-05-25T11:30:32;102285.88;;;17.41;53.09
13612;BME280;6877;51.436;6.774;2023-05-25T11:33:03;102280.38;;;17.50;52.93
13612;BME280;6877;51.436;6.774;2023-05-25T11:35:33;102282.94;;;17.92;51.97
13612;BME280;6877;51.436;6.774;2023-05-25T11:38:06;102274.06;;;17.94;51.26
13612;BME280;6877;51.436;6.774;2023-05-25T11:40:33;102277.72;;;17.89;51.37
13612;BME280;6877;51.436;6.774;2023-05-25T11:43:01;102270.19;;;17.70;51.64
13612;BME280;6877;51.436;6.774;2023-05-25T11:45:34;102269.19;;;17.76;51.97
13612;BME280;6877;51.436;6.774;2023-05-25T11:48:12;102264.09;;;17.67;51.73
13612;BME280;6877;51.436;6.774;2023-05-25T11:50:39;102258.28;;;17.51;52.16
13612;BME280;6877;51.436;6.774;2023-05-25T11:53:11;102262.59;;;17.94;51.58
13612;BME280;6877;51.436;6.774;2023-05-25T11:55:37;102250.94;;;18.34;49.11
13612;BME280;6877;51.436;6.774;2023-05-25T11:58:06;102245.91;;;18.56;48.65
13612;BME280;6877;51.436;6.774;2023-05-25T12:00:32;102252.44;;;18.77;48.28
13612;BME280;6877;51.436;6.774;2023-05-25T12:02:59;102250.63;;;18.77;47.85
13612;BME280;6877;51.436;6.774;2023-05-25T12:05:37;102246.59;;;18.62;47.99
13612;BME280;6877;51.436;6.774;2023-05-25T12:08:04;102251.09;;;18.27;47.05
13612;BME280;6877;51.436;6.774;2023-05-25T12:10:32;102245.31;;;18.13;48.43
13612;BME280;6877;51.436;6.774;2023-05-25T12:13:00;102243.06;;;18.30;48.22
13612;BME280;6877;51.436;6.774;2023-05-25T12:15:32;102238.25;;;18.78;47.36
13612;BME280;6877;51.436;6.774;2023-05-25T12:18:04;102247.44;;;19.25;46.04
13612;BME280;6877;51.436;6.774;2023-05-25T12:20:30;102245.69;;;19.24;46.02
13612;BME280;6877;51.436;6.774;2023-05-25T12:22:57;102241.06;;;19.31;46.03
13612;BME280;6877;51.436;6.774;2023-05-25T12:25:24;102242.97;;;19.26;46.46
13612;BME280;6877;51.436;6.774;2023-05-25T12:28:14;102234.38;;;18.89;46.68
13612;BME280;6877;51.436;6.774;2023-05-25T12:30:41;102233.69;;;18.83;47.48
13612;BME280;6877;51.436;6.774;2023-05-25T12:33:12;102234.00;;;19.02;47.36
13612;BME280;6877;51.436;6.774;2023-05-25T12:35:48;102228.19;;;18.89;47.61
13612;BME280;6877;51.436;6.774;2023-05-25T12:38:19;102232.47;;;19.22;47.36
13612;BME280;6877;51.436;6.774;2023-05-25T12:40:46;102231.78;;;19.44;46.41
13612;BME280;6877;51.436;6.774;2023-05-25T12:43:39;102233.78;;;19.37;46.43
13612;BME280;6877;51.436;6.774;2023-05-25T12:46:08;102227.63;;;19.35;46.16
13612;BME280;6877;51.436;6.774;2023-05-25T12:48:34;102232.06;;;19.35;46.19
13612;BME280;6877;51.436;6.774;2023-05-25T12:51:01;102231.19;;;19.06;47.09
13612;BME280;6877;51.436;6.774;2023-05-25T12:53:45;102224.59;;;18.60;46.48
13612;BME280;6877;51.436;6.774;2023-05-25T12:56:12;102221.13;;;18.57;46.65
13612;BME280;6877;51.436;6.774;2023-05-25T12:58:38;102221.41;;;18.79;46.41
13612;BME280;6877;51.436;6.774;2023-05-25T13:01:08;102225.44;;;19.21;45.62
13612;BME280;6877;51.436;6.774;2023-05-25T13:03:35;102224.25;;;19.58;44.91
13612;BME280;6877;51.436;6.774;2023-05-25T13:06:02;102215.38;;;19.31;45.79
13612;BME280;6877;51.436;6.774;2023-05-25T13:08:33;102211.59;;;19.10;46.55
13612;BME280;6877;51.436;6.774;2023-05-25T13:11:00;102217.97;;;18.75;47.68
13612;BME280;6877;51.436;6.774;2023-05-25T13:13:28;102205.03;;;18.63;47.75
13612;BME280;6877;51.436;6.774;2023-05-25T13:15:57;102195.94;;;18.42;48.27
13612;BME280;6877;51.436;6.774;2023-05-25T13:18:24;102191.09;;;18.56;47.82
13612;BME280;6877;51.436;6.774;2023-05-25T13:20:51;102193.66;;;18.59;47.05
13612;BME280;6877;51.436;6.774;2023-05-25T13:23:18;102194.41;;;18.33;47.80
13612;BME280;6877;51.436;6.774;2023-05-25T13:25:45;102192.88;;;18.24;48.53